Time;durP1;ratioP1;P1;durP2;ratioP2;P2;SDS_P1;SDS_P2;PMS_P1;PMS_P2;Temp;Humidity;BMP_temperature;BMP_pressure;BME280_temperature;BME280_humidity;BME280_pressure;Samples;Min_cycle;Max_cycle;Signal;HPM_P1;HPM_P2
2023/03/25 00:00:38;;;;;;;1.73;0.50;;;18.20;59.50;;;;;;5091825;28;20610;-47
2023/03/25 00:03:15;;;;;;;1.00;0.77;;;18.10;59.50;;;;;;5100189;28;20196;-47
2023/03/25 00:05:47;;;;;;;1.07;0.73;;;18.20;59.50;;;;;;5107447;27;20203;-47
2023/03/25 00:08:24;;;;;;;0.93;0.70;;;18.10;59.40;;;;;;5089325;28;20207;-47
2023/03/25 00:10:57;;;;;;;1.77;0.60;;;18.10;59.40;;;;;;5086765;28;20216;-47
2023/03/25 00:13:26;;;;;;;1.40;0.60;;;18.10;59.50;;;;;;5090618;28;20245;-47
2023/03/25 00:16:10;;;;;;;1.37;0.63;;;18.10;59.50;;;;;;5103827;28;21279;-46
2023/03/25 00:18:42;;;;;;;1.47;0.70;;;18.10;59.40;;;;;;5101852;28;20517;-47
2023/03/25 00:21:10;;;;;;;1.53;0.70;;;18.10;59.40;;;;;;5104082;27;20234;-47
2023/03/25 00:23:42;;;;;;;2.07;0.67;;;18.10;59.50;;;;;;5103984;28;20535;-47
2023/03/25 00:26:12;;;;;;;0.87;0.57;;;18.00;59.50;;;;;;5113827;27;20219;-47
2023/03/25 00:28:40;;;;;;;1.20;0.80;;;18.00;59.50;;;;;;5101906;28;20200;-47
2023/03/25 00:31:15;;;;;;;2.20;0.73;;;18.00;59.50;;;;;;5107396;28;20645;-47
2023/03/25 00:33:49;;;;;;;1.10;0.60;;;18.10;59.50;;;;;;5107619;28;20731;-47
2023/03/25 00:36:21;;;;;;;2.13;0.93;;;18.00;59.50;;;;;;5109876;27;20228;-47
2023/03/25 00:38:51;;;;;;;0.80;0.50;;;18.00;59.50;;;;;;5108395;28;20491;-47
2023/03/25 00:41:28;;;;;;;1.13;0.90;;;18.00;59.40;;;;;;5104515;28;20209;-47
2023/03/25 00:44:00;;;;;;;1.77;0.80;;;18.00;59.50;;;;;;5077228;28;20185;-47
2023/03/25 00:46:32;;;;;;;1.93;1.23;;;18.00;59.50;;;;;;5084040;28;20590;-47
2023/03/25 00:49:03;;;;;;;0.83;0.63;;;18.00;59.40;;;;;;5096467;27;20200;-47
2023/03/25 00:51:34;;;;;;;1.80;0.80;;;18.00;59.50;;;;;;5093973;28;20274;-47
2023/03/25 00:54:22;;;;;;;2.33;0.80;;;18.00;59.50;;;;;;5106262;28;20618;-47
2023/03/25 00:56:52;;;;;;;1.30;0.80;;;18.00;59.50;;;;;;5090943;28;20606;-47
2023/03/25 00:59:21;;;;;;;3.23;0.97;;;18.00;59.50;;;;;;5090072;28;20235;-47
2023/03/25 01:01:54;;;;;;;1.67;0.70;;;18.00;59.50;;;;;;5104776;28;20228;-47
2023/03/25 01:04:28;;;;;;;2.63;1.13;;;18.00;59.50;;;;;;5106715;28;20716;-47
2023/03/25 01:07:00;;;;;;;2.00;1.13;;;18.00;59.50;;;;;;5090847;28;20196;-47
2023/03/25 01:09:30;;;;;;;1.10;0.90;;;18.00;59.50;;;;;;5108445;28;20196;-47
2023/03/25 01:12:02;;;;;;;1.07;0.67;;;18.00;59.60;;;;;;5088114;28;20223;-47
2023/03/25 01:14:30;;;;;;;1.70;0.50;;;18.00;59.50;;;;;;5104166;28;20201;-46
2023/03/25 01:17:01;;;;;;;1.47;0.50;;;18.00;59.60;;;;;;5095054;28;20209;-46
2023/03/25 01:19:29;;;;;;;1.70;1.17;;;18.00;59.60;;;;;;5091035;28;20197;-47
2023/03/25 01:22:00;;;;;;;1.47;1.00;;;18.00;59.60;;;;;;5098349;28;20574;-47
2023/03/25 01:24:31;;;;;;;1.00;0.60;;;17.90;59.50;;;;;;5103888;28;20208;-46
2023/03/25 01:27:00;;;;;;;2.03;0.90;;;18.00;59.60;;;;;;5090582;28;20724;-47
2023/03/25 01:29:32;;;;;;;1.47;0.70;;;18.00;59.60;;;;;;5081887;28;20229;-47
2023/03/25 01:32:05;;;;;;;2.63;1.20;;;17.90;59.60;;;;;;5105315;28;20224;-47
2023/03/25 01:34:37;;;;;;;2.20;0.63;;;17.90;59.60;;;;;;5117165;28;20746;-47
2023/03/25 01:37:10;;;;;;;2.47;0.80;;;17.90;59.60;;;;;;5118801;28;20569;-47
2023/03/25 01:39:40;;;;;;;2.10;0.80;;;18.00;59.60;;;;;;5107730;28;20799;-47
2023/03/25 01:42:12;;;;;;;1.30;0.70;;;17.90;59.60;;;;;;5111767;28;20214;-47
2023/03/25 01:44:48;;;;;;;2.10;0.80;;;18.00;59.70;;;;;;5093610;28;20197;-47
2023/03/25 01:47:18;;;;;;;1.67;0.80;;;17.90;59.60;;;;;;5096246;28;20188;-47
2023/03/25 01:49:50;;;;;;;0.60;0.50;;;17.90;59.60;;;;;;5105212;28;20193;-47
2023/03/25 01:52:24;;;;;;;1.37;0.80;;;17.90;59.60;;;;;;5083689;28;20205;-47
2023/03/25 01:54:59;;;;;;;2.33;0.60;;;17.90;59.60;;;;;;5089997;28;20451;-47
2023/03/25 01:57:31;;;;;;;1.43;0.57;;;17.90;59.60;;;;;;5110083;28;20195;-47
2023/03/25 02:00:07;;;;;;;1.63;0.90;;;17.90;59.70;;;;;;5099603;27;20221;-47
2023/03/25 02:02:39;;;;;;;2.30;0.63;;;17.90;59.70;;;;;;5093807;28;20219;-47
2023/03/25 02:05:20;;;;;;;1.20;0.73;;;17.90;59.60;;;;;;5110491;27;20212;-47
2023/03/25 02:07:53;;;;;;;2.17;0.87;;;17.90;59.60;;;;;;5100276;28;20185;-48
2023/03/25 02:10:29;;;;;;;1.70;1.10;;;17.90;59.60;;;;;;5091453;28;20223;-47
2023/03/25 02:13:05;;;;;;;1.30;0.97;;;17.80;59.60;;;;;;5068996;28;20188;-47
2023/03/25 02:15:58;;;;;;;1.67;1.00;;;17.90;59.60;;;;;;5086662;27;20188;-47
2023/03/25 02:18:42;;;;;;;2.03;1.13;;;17.90;59.50;;;;;;5104083;28;20254;-47
2023/03/25 02:21:52;;;;;;;1.00;0.90;;;17.90;59.70;;;;;;5121251;27;20200;-47
2023/03/25 02:24:24;;;;;;;2.40;0.90;;;17.90;59.60;;;;;;5099793;28;20192;-47
2023/03/25 02:27:44;;;;;;;3.00;0.90;;;17.80;59.60;;;;;;5102697;27;20193;-47
2023/03/25 02:30:59;;;;;;;1.67;0.67;;;17.80;59.50;;;;;;5002169;28;20684;-47
2023/03/25 02:34:16;;;;;;;1.83;0.80;;;17.80;59.70;;;;;;5000978;28;20238;-47
2023/03/25 02:37:22;;;;;;;1.50;0.60;;;17.80;59.60;;;;;;5001617;28;20215;-47
2023/03/25 02:40:18;;;;;;;1.17;0.60;;;17.80;59.60;;;;;;5052653;28;20212;-47
2023/03/25 02:43:27;;;;;;;2.07;0.83;;;17.80;59.60;;;;;;5108469;28;20640;-46
2023/03/25 02:46:04;;;;;;;2.37;0.80;;;17.80;59.60;;;;;;5003756;28;20211;-47
2023/03/25 02:48:56;;;;;;;2.70;1.23;;;17.70;59.60;;;;;;4999965;28;20208;-47
2023/03/25 02:51:53;;;;;;;2.00;0.73;;;17.70;59.60;;;;;;5002442;28;20366;-47
2023/03/25 02:54:24;;;;;;;2.50;0.90;;;17.80;59.50;;;;;;4991816;28;20872;-47
2023/03/25 02:56:58;;;;;;;1.53;0.70;;;17.80;59.60;;;;;;4990953;28;20195;-47
2023/03/25 02:59:32;;;;;;;1.33;0.80;;;17.80;59.50;;;;;;5017892;27;20278;-47
2023/03/25 03:02:06;;;;;;;1.33;0.83;;;17.70;59.50;;;;;;5074481;28;20532;-47
2023/03/25 03:04:54;;;;;;;1.87;0.80;;;17.70;59.40;;;;;;5074162;28;20203;-47
2023/03/25 03:07:32;;;;;;;2.00;0.90;;;17.80;59.40;;;;;;5098927;28;20197;-47
2023/03/25 03:10:20;;;;;;;1.10;0.60;;;17.80;59.40;;;;;;5088382;28;20184;-47
2023/03/25 03:13:20;;;;;;;1.67;0.60;;;17.70;59.30;;;;;;5109789;28;20686;-47
2023/03/25 03:16:20;;;;;;;1.10;0.67;;;17.70;59.30;;;;;;5108934;28;20570;-47
2023/03/25 03:19:01;;;;;;;2.10;1.10;;;17.80;59.40;;;;;;5105139;27;20196;-47
2023/03/25 03:21:52;;;;;;;1.37;0.80;;;17.70;59.30;;;;;;5101517;28;20205;-49
2023/03/25 03:24:39;;;;;;;1.53;0.80;;;17.70;59.30;;;;;;5103683;28;20455;-47
2023/03/25 03:27:23;;;;;;;1.97;0.70;;;17.80;59.40;;;;;;5119117;27;20196;-47
2023/03/25 03:30:13;;;;;;;1.57;0.70;;;17.70;59.30;;;;;;5098965;28;20303;-47
2023/03/25 03:32:54;;;;;;;2.10;1.00;;;17.70;59.30;;;;;;5107083;27;20224;-48
2023/03/25 03:35:32;;;;;;;2.23;0.80;;;17.70;59.30;;;;;;5081684;28;20574;-47
2023/03/25 03:38:15;;;;;;;0.93;0.60;;;17.70;59.30;;;;;;5094796;28;20206;-47
2023/03/25 03:40:56;;;;;;;1.53;0.67;;;17.80;59.30;;;;;;5081668;28;20559;-47
2023/03/25 03:43:46;;;;;;;3.67;1.20;;;17.70;59.30;;;;;;5106934;27;20628;-47
2023/03/25 03:46:30;;;;;;;1.70;1.00;;;17.70;59.20;;;;;;5107680;28;20199;-47
2023/03/25 03:49:04;;;;;;;3.33;0.90;;;17.70;59.20;;;;;;5086601;28;20201;-47
2023/03/25 03:51:37;;;;;;;1.03;0.50;;;17.70;59.20;;;;;;5086532;28;20782;-47
2023/03/25 03:54:18;;;;;;;1.47;0.90;;;17.70;59.20;;;;;;5093008;28;20334;-47
2023/03/25 03:57:10;;;;;;;2.43;0.93;;;17.70;59.30;;;;;;5111669;27;20184;-47
2023/03/25 04:00:15;;;;;;;2.50;0.70;;;17.70;59.20;;;;;;5106231;28;20565;-47
2023/03/25 04:03:13;;;;;;;2.13;0.73;;;17.70;59.30;;;;;;5104915;27;20655;-47
2023/03/25 04:05:59;;;;;;;1.30;0.80;;;17.70;59.20;;;;;;5106008;28;20207;-46
2023/03/25 04:08:34;;;;;;;2.00;0.80;;;17.70;59.30;;;;;;5102561;27;20288;-47
2023/03/25 04:11:09;;;;;;;1.90;0.67;;;17.70;59.90;;;;;;5074749;28;20730;-47
2023/03/25 04:13:45;;;;;;;2.30;1.00;;;17.70;59.30;;;;;;5085782;28;20195;-47
2023/03/25 04:16:27;;;;;;;2.30;0.70;;;17.60;59.20;;;;;;5104821;28;20236;-47
2023/03/25 04:18:57;;;;;;;1.43;0.60;;;17.70;59.30;;;;;;5095974;28;20200;-47
2023/03/25 04:21:28;;;;;;;3.23;1.20;;;17.70;59.40;;;;;;5102151;28;20206;-47
2023/03/25 04:24:02;;;;;;;2.07;1.10;;;17.60;59.30;;;;;;5100173;28;20200;-47
2023/03/25 04:26:32;;;;;;;2.37;1.17;;;17.70;59.30;;;;;;5115493;27;20204;-47
2023/03/25 04:29:03;;;;;;;1.87;0.70;;;17.70;59.30;;;;;;5079270;28;20246;-47
2023/03/25 04:31:36;;;;;;;2.50;0.70;;;17.70;59.30;;;;;;5108890;28;20558;-47
2023/03/25 04:34:09;;;;;;;2.73;0.90;;;17.70;59.30;;;;;;5090104;28;20239;-47
2023/03/25 04:36:41;;;;;;;1.27;0.93;;;17.70;59.30;;;;;;5084588;28;20220;-47
2023/03/25 04:39:11;;;;;;;1.90;1.00;;;17.70;59.40;;;;;;5107958;28;20267;-47
2023/03/25 04:41:42;;;;;;;2.60;1.07;;;17.70;59.30;;;;;;5103656;28;20540;-47
2023/03/25 04:44:16;;;;;;;2.10;1.03;;;17.70;59.40;;;;;;5105534;28;20192;-45
2023/03/25 04:46:47;;;;;;;1.50;0.80;;;17.70;59.40;;;;;;5086859;28;20197;-47
2023/03/25 04:49:25;;;;;;;2.33;0.90;;;17.70;59.40;;;;;;5071302;28;20249;-47
2023/03/25 04:51:54;;;;;;;2.27;1.00;;;17.60;59.40;;;;;;5082222;28;20652;-47
2023/03/25 04:54:41;;;;;;;1.77;0.87;;;17.60;59.40;;;;;;5104418;28;20231;-47
2023/03/25 04:57:11;;;;;;;1.77;0.80;;;17.60;59.40;;;;;;5108445;28;20218;-47
2023/03/25 04:59:41;;;;;;;3.17;0.93;;;17.60;59.40;;;;;;5105458;28;20196;-47
2023/03/25 05:02:17;;;;;;;1.60;0.97;;;17.60;59.40;;;;;;5092431;28;20188;-47
2023/03/25 05:04:48;;;;;;;2.50;0.77;;;17.60;59.30;;;;;;5105241;28;20216;-47
2023/03/25 05:07:19;;;;;;;1.43;0.83;;;17.60;59.30;;;;;;5107754;28;20203;-47
2023/03/25 05:09:49;;;;;;;2.37;1.23;;;17.60;59.30;;;;;;5105067;28;20597;-47
2023/03/25 05:12:21;;;;;;;2.60;0.77;;;17.60;59.30;;;;;;5088459;28;20264;-47
2023/03/25 05:14:50;;;;;;;5.03;1.03;;;17.60;59.40;;;;;;5088829;28;20257;-47
2023/03/25 05:17:19;;;;;;;0.80;0.60;;;17.60;59.40;;;;;;5102462;28;20293;-46
2023/03/25 05:19:51;;;;;;;1.30;0.70;;;17.60;59.40;;;;;;5105305;28;20289;-47
2023/03/25 05:22:22;;;;;;;1.43;0.70;;;17.60;59.40;;;;;;5107865;28;20280;-47
2023/03/25 05:24:53;;;;;;;3.63;0.70;;;17.60;59.40;;;;;;5082306;28;20200;-45
2023/03/25 05:27:24;;;;;;;2.03;0.83;;;17.60;59.30;;;;;;5109212;28;20272;-47
2023/03/25 05:29:57;;;;;;;3.17;1.17;;;17.60;59.30;;;;;;5111275;28;20730;-47
2023/03/25 05:32:49;;;;;;;2.30;0.80;;;17.60;59.30;;;;;;5097284;28;20240;-45
2023/03/25 05:35:25;;;;;;;3.00;1.13;;;17.60;59.30;;;;;;5097040;28;20227;-46
2023/03/25 05:38:11;;;;;;;1.53;0.70;;;17.60;59.30;;;;;;5092068;27;20219;-45
2023/03/25 05:40:48;;;;;;;2.53;1.00;;;17.60;59.20;;;;;;5092078;28;20600;-45
2023/03/25 05:43:21;;;;;;;2.80;1.70;;;17.50;59.20;;;;;;5093861;28;20497;-45
2023/03/25 05:45:53;;;;;;;1.77;0.90;;;17.50;59.10;;;;;;5108710;28;20621;-45
2023/03/25 05:48:25;;;;;;;1.63;0.73;;;17.50;59.10;;;;;;5112876;27;20217;-45
2023/03/25 05:50:55;;;;;;;1.97;1.30;;;17.60;59.10;;;;;;5110186;28;20542;-45
2023/03/25 05:53:29;;;;;;;3.17;0.90;;;17.60;59.00;;;;;;5108227;28;20326;-45
2023/03/25 05:56:00;;;;;;;4.23;1.00;;;17.50;59.00;;;;;;5108924;28;20967;-45
2023/03/25 05:58:31;;;;;;;2.30;1.00;;;17.60;59.00;;;;;;5117927;27;20223;-45
2023/03/25 06:01:18;;;;;;;2.83;0.97;;;17.50;58.90;;;;;;5112533;27;20216;-47
2023/03/25 06:04:00;;;;;;;3.00;0.97;;;17.60;58.90;;;;;;5104180;27;20197;-45
2023/03/25 06:06:32;;;;;;;1.67;0.80;;;17.50;58.90;;;;;;5109446;28;20231;-45
2023/03/25 06:09:03;;;;;;;1.87;0.80;;;17.50;58.90;;;;;;5094036;28;20602;-45
2023/03/25 06:11:45;;;;;;;3.43;1.20;;;17.50;58.80;;;;;;5093621;28;20219;-45
2023/03/25 06:14:17;;;;;;;2.37;1.07;;;17.50;58.70;;;;;;5098469;28;20197;-45
2023/03/25 06:16:49;;;;;;;2.43;1.20;;;17.50;58.70;;;;;;5105217;28;20555;-46
2023/03/25 06:19:25;;;;;;;3.63;0.97;;;17.50;58.70;;;;;;5105857;28;20193;-46
2023/03/25 06:21:56;;;;;;;1.60;0.77;;;17.50;58.60;;;;;;5108651;28;20204;-45
2023/03/25 06:24:26;;;;;;;3.37;0.90;;;17.50;58.60;;;;;;5102046;28;20673;-45
2023/03/25 06:27:02;;;;;;;2.93;1.20;;;17.50;58.60;;;;;;5094079;28;20304;-45
2023/03/25 06:29:43;;;;;;;1.63;0.90;;;17.50;58.50;;;;;;5111147;27;20265;-45
2023/03/25 06:32:14;;;;;;;2.53;1.20;;;17.50;58.60;;;;;;5102788;28;20212;-45
2023/03/25 06:34:45;;;;;;;2.07;1.00;;;17.50;58.60;;;;;;5110110;27;20224;-46
2023/03/25 06:37:17;;;;;;;2.77;0.70;;;17.50;58.60;;;;;;5110151;28;20192;-46
2023/03/25 06:39:48;;;;;;;2.67;1.10;;;17.50;58.50;;;;;;5111085;28;20614;-45
2023/03/25 06:42:19;;;;;;;1.13;0.80;;;17.50;58.50;;;;;;5109286;28;20677;-45
2023/03/25 06:44:49;;;;;;;2.60;1.00;;;17.50;58.50;;;;;;5110702;27;20204;-45
2023/03/25 06:47:24;;;;;;;1.73;1.20;;;17.50;58.60;;;;;;5076530;28;20196;-45
2023/03/25 06:49:53;;;;;;;2.37;0.90;;;17.50;58.50;;;;;;5108285;27;20498;-45
2023/03/25 06:52:22;;;;;;;1.73;0.90;;;17.50;58.50;;;;;;5107628;28;20755;-45
2023/03/25 06:54:54;;;;;;;3.03;1.40;;;17.50;58.50;;;;;;5092900;28;20208;-45
2023/03/25 06:57:23;;;;;;;2.90;1.27;;;17.50;58.50;;;;;;5103765;28;20220;-45
2023/03/25 06:59:51;;;;;;;2.17;0.93;;;17.50;58.50;;;;;;5117156;27;20188;-45
2023/03/25 07:02:21;;;;;;;1.17;1.03;;;17.50;58.50;;;;;;5076160;28;20624;-45
2023/03/25 07:04:51;;;;;;;2.87;1.10;;;17.50;58.50;;;;;;5092348;28;20757;-45
2023/03/25 07:07:24;;;;;;;2.43;1.10;;;17.50;58.40;;;;;;5110801;28;20199;-45
2023/03/25 07:09:57;;;;;;;2.40;1.00;;;17.50;58.40;;;;;;5107607;28;20275;-45
2023/03/25 07:12:27;;;;;;;2.43;1.00;;;17.50;58.40;;;;;;5091122;28;20216;-45
2023/03/25 07:14:58;;;;;;;2.20;0.90;;;17.40;58.30;;;;;;5115897;27;20196;-45
2023/03/25 07:17:26;;;;;;;2.57;1.10;;;17.40;58.30;;;;;;5108311;28;20227;-45
2023/03/25 07:19:55;;;;;;;2.03;0.87;;;17.40;58.30;;;;;;5100892;28;20189;-45
2023/03/25 07:22:35;;;;;;;2.67;0.93;;;17.50;58.40;;;;;;5092078;28;20200;-45
2023/03/25 07:25:04;;;;;;;2.50;1.00;;;17.50;58.30;;;;;;5110224;28;20211;-46
2023/03/25 07:27:35;;;;;;;3.53;0.93;;;17.50;58.30;;;;;;5108939;28;20201;-46
2023/03/25 07:30:09;;;;;;;2.23;1.00;;;17.40;58.30;;;;;;5104490;28;20218;-46
2023/03/25 07:32:38;;;;;;;2.93;1.10;;;17.40;58.30;;;;;;5103341;28;20200;-46
2023/03/25 07:35:09;;;;;;;3.00;0.87;;;17.40;58.30;;;;;;5083578;28;20216;-46
2023/03/25 07:37:40;;;;;;;2.70;1.00;;;17.50;58.30;;;;;;5108906;28;20193;-46
2023/03/25 07:40:12;;;;;;;2.93;1.13;;;17.50;58.30;;;;;;5114674;27;20195;-46
2023/03/25 07:42:46;;;;;;;3.97;1.30;;;17.40;58.30;;;;;;5112354;27;20263;-45
2023/03/25 07:45:14;;;;;;;3.30;1.10;;;17.50;58.30;;;;;;5086242;28;20196;-45
2023/03/25 07:47:48;;;;;;;2.80;1.03;;;17.50;58.30;;;;;;5091650;28;20275;-45
2023/03/25 07:50:22;;;;;;;3.30;1.27;;;17.40;58.20;;;;;;5109116;28;20245;-45
2023/03/25 07:52:55;;;;;;;2.93;1.07;;;17.50;58.30;;;;;;5105645;28;20239;-45
2023/03/25 07:55:28;;;;;;;2.83;1.00;;;17.40;58.20;;;;;;5107978;28;20204;-45
2023/03/25 07:58:17;;;;;;;2.17;1.20;;;17.50;58.30;;;;;;5106106;28;20204;-45
2023/03/25 08:00:49;;;;;;;4.73;1.27;;;17.50;58.30;;;;;;5101662;28;20675;-45
2023/03/25 08:03:20;;;;;;;3.27;1.00;;;17.50;58.30;;;;;;5108400;28;20633;-45
2023/03/25 08:05:50;;;;;;;7.67;1.60;;;17.50;58.30;;;;;;5102881;27;20204;-45
2023/03/25 08:08:19;;;;;;;5.63;1.50;;;17.50;58.30;;;;;;5073616;28;20184;-45
2023/03/25 08:10:51;;;;;;;3.90;1.40;;;17.50;58.30;;;;;;5104206;27;20204;-45
2023/03/25 08:13:22;;;;;;;3.80;1.20;;;17.40;58.20;;;;;;5107951;28;20420;-45
2023/03/25 08:15:51;;;;;;;3.27;1.27;;;17.50;58.30;;;;;;5090739;27;20809;-45
2023/03/25 08:18:20;;;;;;;4.60;1.50;;;17.50;58.30;;;;;;5107532;28;20258;-45
2023/03/25 08:20:52;;;;;;;3.07;1.10;;;17.50;58.30;;;;;;5090897;28;20268;-45
2023/03/25 08:23:25;;;;;;;3.77;1.33;;;17.40;58.20;;;;;;5085723;28;20196;-45
2023/03/25 08:25:56;;;;;;;6.03;1.60;;;17.50;58.30;;;;;;5106773;27;20199;-45
2023/03/25 08:28:25;;;;;;;3.33;1.43;;;17.40;58.30;;;;;;5114636;27;20291;-45
2023/03/25 08:30:56;;;;;;;3.53;1.40;;;17.50;58.30;;;;;;5110322;27;20192;-45
2023/03/25 08:33:26;;;;;;;3.23;1.27;;;17.50;58.30;;;;;;5105776;28;20220;-46
2023/03/25 08:35:57;;;;;;;3.17;1.13;;;17.50;58.30;;;;;;5085002;28;20200;-46
2023/03/25 08:38:30;;;;;;;6.80;1.43;;;17.50;58.30;;;;;;5105960;28;20188;-46
2023/03/25 08:41:02;;;;;;;3.73;1.20;;;17.50;58.30;;;;;;5103830;27;20209;-45
2023/03/25 08:43:36;;;;;;;5.37;1.60;;;17.50;58.20;;;;;;5088880;28;20531;-45
2023/03/25 08:46:07;;;;;;;3.57;1.37;;;17.50;58.20;;;;;;5104003;28;20195;-46
2023/03/25 08:48:38;;;;;;;3.73;1.30;;;17.50;58.30;;;;;;5103619;28;20237;-45
2023/03/25 08:51:08;;;;;;;5.87;1.40;;;17.50;58.30;;;;;;5095035;28;20249;-45
2023/03/25 08:53:37;;;;;;;4.67;1.77;;;17.50;58.30;;;;;;5100203;28;20752;-45
2023/03/25 08:56:09;;;;;;;4.93;1.70;;;17.50;58.30;;;;;;5106046;28;20203;-45
2023/03/25 08:58:37;;;;;;;6.13;1.63;;;17.50;58.30;;;;;;5094623;28;20208;-45
2023/03/25 09:01:06;;;;;;;3.93;1.60;;;17.50;58.30;;;;;;5108569;28;20692;-45
2023/03/25 09:03:41;;;;;;;4.33;1.63;;;17.50;58.30;;;;;;5073992;28;20200;-45
2023/03/25 09:06:10;;;;;;;3.73;1.40;;;17.50;58.30;;;;;;5095412;28;20208;-45
2023/03/25 09:08:43;;;;;;;4.00;1.50;;;17.50;58.30;;;;;;5113882;27;20636;-45
2023/03/25 09:11:18;;;;;;;3.37;1.40;;;17.50;58.30;;;;;;5112220;27;20624;-46
2023/03/25 09:14:04;;;;;;;4.33;1.60;;;17.50;58.30;;;;;;5104849;28;20855;-46
2023/03/25 09:16:33;;;;;;;6.80;1.63;;;17.50;58.30;;;;;;5087946;28;20705;-45
2023/03/25 09:19:03;;;;;;;4.37;1.60;;;17.50;58.30;;;;;;5109331;28;20199;-45
2023/03/25 09:21:35;;;;;;;6.63;1.67;;;17.50;58.30;;;;;;5114936;27;20191;-45
2023/03/25 09:24:21;;;;;;;5.03;1.40;;;17.50;58.30;;;;;;5115220;27;20290;-45
2023/03/25 09:26:53;;;;;;;5.03;1.73;;;17.50;58.30;;;;;;5087139;28;20695;-45
2023/03/25 09:29:26;;;;;;;3.60;1.57;;;17.50;58.40;;;;;;5078167;28;21048;-45
2023/03/25 09:31:57;;;;;;;4.83;1.73;;;17.60;58.30;;;;;;5090322;28;20232;-45
2023/03/25 09:34:27;;;;;;;4.00;1.70;;;17.50;58.20;;;;;;5099245;28;20247;-45
2023/03/25 09:36:57;;;;;;;4.57;1.60;;;17.50;58.20;;;;;;5106805;27;20527;-46
2023/03/25 09:39:30;;;;;;;5.27;1.50;;;17.50;58.10;;;;;;5078463;28;20581;-45
2023/03/25 09:42:47;;;;;;;4.00;1.50;;;17.50;58.20;;;;;;5108016;27;20588;-45
2023/03/25 09:45:54;;;;;;;2.00;1.00;;;17.50;58.10;;;;;;5106662;28;20672;-45
2023/03/25 09:48:42;;;;;;;4.60;1.67;;;17.50;58.20;;;;;;5101519;28;20587;-45
2023/03/25 09:51:25;;;;;;;4.23;1.50;;;17.50;58.10;;;;;;5110292;27;20222;-45
2023/03/25 09:54:30;;;;;;;2.90;1.27;;;17.50;58.20;;;;;;5111446;27;20258;-45
2023/03/25 09:57:07;;;;;;;4.83;1.40;;;17.50;58.20;;;;;;5106744;28;20211;-45
2023/03/25 09:59:50;;;;;;;3.57;1.30;;;17.50;58.30;;;;;;5093073;28;20200;-45
2023/03/25 10:02:38;;;;;;;5.13;1.67;;;17.50;58.30;;;;;;5103096;27;20263;-45
2023/03/25 10:05:48;;;;;;;3.77;1.50;;;17.60;58.30;;;;;;5109035;28;20239;-46
2023/03/25 10:09:06;;;;;;;3.67;1.47;;;17.50;58.20;;;;;;5104259;28;20231;-46
2023/03/25 10:12:06;;;;;;;3.43;1.33;;;17.50;58.20;;;;;;5046656;28;20291;-46
2023/03/25 10:14:55;;;;;;;4.10;1.20;;;17.60;58.30;;;;;;5102253;28;20208;-46
2023/03/25 10:18:03;;;;;;;4.10;1.20;;;17.60;58.30;;;;;;5102116;27;20212;-46
2023/03/25 10:21:15;;;;;;;2.27;0.90;;;17.60;58.20;;;;;;5108716;28;20200;-46
2023/03/25 10:24:23;;;;;;;11.63;2.97;;;17.60;58.30;;;;;;5104207;28;20209;-47
2023/03/25 10:27:04;;;;;;;13.43;3.23;;;17.50;58.90;;;;;;5105008;27;20211;-46
2023/03/25 10:29:40;;;;;;;7.17;2.83;;;17.50;58.70;;;;;;5108862;28;20234;-46
2023/03/25 10:32:28;;;;;;;11.10;3.57;;;17.50;58.50;;;;;;5100471;27;20682;-45
2023/03/25 10:35:05;;;;;;;10.67;3.43;;;17.60;58.60;;;;;;5109633;28;20227;-46
2023/03/25 10:37:40;;;;;;;7.90;2.50;;;17.60;58.70;;;;;;5091766;28;20218;-45
2023/03/25 10:40:48;;;;;;;9.47;3.07;;;17.50;58.60;;;;;;5070718;28;20220;-45
2023/03/25 10:43:36;;;;;;;7.20;2.97;;;17.60;58.50;;;;;;5109195;28;20608;-45
2023/03/25 10:46:36;;;;;;;5.67;2.20;;;17.60;58.50;;;;;;5075115;28;20209;-45
2023/03/25 10:49:08;;;;;;;5.77;2.33;;;17.50;58.50;;;;;;5110244;28;20292;-45
2023/03/25 10:51:41;;;;;;;6.20;2.37;;;17.60;58.50;;;;;;5092529;28;20241;-46
2023/03/25 10:54:15;;;;;;;7.63;2.00;;;17.60;58.40;;;;;;5103191;27;20251;-45
2023/03/25 10:56:55;;;;;;;7.07;2.60;;;17.60;58.40;;;;;;5111082;27;20199;-45
2023/03/25 10:59:48;;;;;;;5.87;2.43;;;17.60;58.40;;;;;;5079215;27;20185;-46
2023/03/25 11:02:23;;;;;;;7.13;2.17;;;17.60;59.00;;;;;;5107444;27;20528;-45
2023/03/25 11:05:09;;;;;;;4.70;1.97;;;17.60;58.50;;;;;;5106958;28;20200;-45
2023/03/25 11:07:41;;;;;;;4.83;1.60;;;17.60;58.40;;;;;;5119846;27;20191;-46
2023/03/25 11:10:24;;;;;;;7.17;1.90;;;17.60;58.30;;;;;;5075755;28;20200;-46
2023/03/25 11:12:55;;;;;;;7.00;2.07;;;17.60;58.40;;;;;;5114068;27;20215;-45
2023/03/25 11:15:42;;;;;;;5.23;2.00;;;17.60;58.40;;;;;;5110152;28;20192;-45
2023/03/25 11:18:35;;;;;;;4.13;1.73;;;17.60;58.30;;;;;;5083189;28;20326;-45
2023/03/25 11:21:19;;;;;;;5.93;1.73;;;17.60;58.40;;;;;;5089845;28;20188;-46
2023/03/25 11:23:54;;;;;;;4.23;1.70;;;17.60;59.20;;;;;;5094276;27;20633;-46
2023/03/25 11:26:41;;;;;;;6.33;2.40;;;17.60;58.60;;;;;;5103489;28;20200;-46
2023/03/25 11:29:20;;;;;;;5.23;2.33;;;17.60;58.60;;;;;;5101612;28;20705;-46
2023/03/25 11:32:06;;;;;;;4.60;1.73;;;17.60;58.50;;;;;;5087666;27;20218;-45
2023/03/25 11:34:46;;;;;;;2.77;1.30;;;17.60;58.80;;;;;;5090720;28;20240;-45
2023/03/25 11:37:31;;;;;;;5.03;2.17;;;17.60;58.70;;;;;;5093473;27;20574;-45
2023/03/25 11:40:12;;;;;;;5.50;2.03;;;17.70;58.70;;;;;;5071570;28;20237;-45
2023/03/25 11:42:51;;;;;;;5.13;1.60;;;17.60;58.60;;;;;;5096810;28;20196;-46
2023/03/25 11:45:39;;;;;;;4.53;1.63;;;17.60;58.60;;;;;;5097787;28;20204;-46
2023/03/25 11:48:37;;;;;;;5.20;1.50;;;17.70;58.60;;;;;;5100610;27;20209;-46
2023/03/25 11:51:18;;;;;;;7.50;1.83;;;17.70;58.60;;;;;;5103148;28;20192;-45
2023/03/25 11:53:58;;;;;;;6.33;1.77;;;17.70;58.50;;;;;;5084905;28;20724;-46
2023/03/25 11:56:40;;;;;;;8.63;2.30;;;17.60;58.40;;;;;;5090276;28;20196;-46
2023/03/25 11:59:37;;;;;;;4.20;1.50;;;17.70;58.40;;;;;;5088292;28;20189;-46
2023/03/25 12:02:29;;;;;;;4.63;1.70;;;17.70;58.40;;;;;;5102435;28;20200;-45
2023/03/25 12:05:15;;;;;;;5.17;2.03;;;17.70;58.30;;;;;;5102393;28;20215;-45
2023/03/25 12:07:50;;;;;;;4.93;1.80;;;17.70;58.30;;;;;;5086916;28;20195;-45
2023/03/25 12:10:40;;;;;;;6.03;2.07;;;17.70;58.40;;;;;;5091024;28;20188;-45
2023/03/25 12:14:00;;;;;;;5.70;1.40;;;17.70;58.30;;;;;;5113940;27;20222;-45
2023/03/25 12:16:58;;;;;;;4.87;1.60;;;17.70;58.20;;;;;;5098540;28;20546;-46
2023/03/25 12:19:51;;;;;;;5.27;1.63;;;17.70;58.00;;;;;;5094838;27;20615;-46
2023/03/25 12:22:48;;;;;;;5.47;1.80;;;17.70;58.10;;;;;;5107127;28;20278;-45
2023/03/25 12:25:47;;;;;;;4.43;1.90;;;17.80;58.00;;;;;;5112173;27;20198;-45
2023/03/25 12:28:28;;;;;;;4.73;1.40;;;17.70;58.00;;;;;;5095531;28;20204;-45
2023/03/25 12:31:35;;;;;;;4.23;1.53;;;17.70;58.00;;;;;;5105879;28;20694;-45
2023/03/25 12:34:37;;;;;;;2.97;1.50;;;17.70;57.90;;;;;;5098337;28;20228;-45
2023/03/25 12:37:30;;;;;;;4.17;1.90;;;17.80;58.00;;;;;;5102149;28;20518;-45
2023/03/25 12:40:43;;;;;;;3.70;1.90;;;17.70;58.00;;;;;;5095034;28;20203;-45
2023/03/25 12:43:39;;;;;;;3.87;1.20;;;17.70;58.00;;;;;;5044807;28;20202;-45
2023/03/25 12:46:28;;;;;;;3.60;1.33;;;17.80;58.10;;;;;;5068387;28;20581;-46
2023/03/25 12:49:11;;;;;;;3.93;1.30;;;17.80;58.10;;;;;;5081180;28;20189;-45
2023/03/25 12:52:21;;;;;;;2.97;1.30;;;17.70;58.10;;;;;;5108284;28;20221;-46
2023/03/25 12:55:01;;;;;;;4.07;1.40;;;17.80;58.10;;;;;;5106113;28;20208;-47
2023/03/25 12:57:57;;;;;;;4.07;1.30;;;17.70;58.00;;;;;;5103420;28;20202;-45
2023/03/25 13:00:32;;;;;;;3.00;1.47;;;17.80;58.10;;;;;;5098440;28;20196;-45
2023/03/25 13:03:21;;;;;;;3.70;1.20;;;17.80;58.10;;;;;;5107976;28;20286;-45
2023/03/25 13:06:42;;;;;;;3.90;1.00;;;17.80;58.10;;;;;;5106225;28;20200;-45
2023/03/25 13:09:29;;;;;;;2.47;1.13;;;17.80;58.20;;;;;;5057794;28;20224;-45
2023/03/25 13:12:03;;;;;;;2.47;0.90;;;17.80;58.20;;;;;;5070399;28;20196;-45
2023/03/25 13:15:12;;;;;;;3.33;1.27;;;17.70;58.20;;;;;;5082622;28;20850;-45
2023/03/25 13:18:12;;;;;;;2.93;1.07;;;17.70;58.20;;;;;;5017765;28;20313;-45
2023/03/25 13:21:12;;;;;;;3.23;1.10;;;17.70;58.20;;;;;;5022335;28;20198;-45
2023/03/25 13:23:51;;;;;;;3.27;1.00;;;17.80;58.30;;;;;;5022415;28;20206;-46
2023/03/25 13:26:25;;;;;;;4.37;1.10;;;17.70;58.20;;;;;;5024177;28;20306;-45
2023/03/25 13:29:02;;;;;;;2.43;1.03;;;17.70;58.20;;;;;;4997250;28;20207;-45
2023/03/25 13:31:41;;;;;;;2.33;0.80;;;17.70;58.20;;;;;;5024765;28;20201;-46
2023/03/25 13:34:49;;;;;;;3.30;1.33;;;17.80;58.20;;;;;;5007594;28;20241;-46
2023/03/25 13:37:24;;;;;;;1.73;0.80;;;17.80;58.20;;;;;;5106143;28;20201;-45
2023/03/25 13:40:13;;;;;;;2.80;0.90;;;17.70;58.40;;;;;;5105701;28;20207;-45
2023/03/25 13:43:03;;;;;;;3.20;1.03;;;17.80;58.40;;;;;;5100735;28;20200;-46
2023/03/25 13:45:53;;;;;;;2.23;0.70;;;17.80;58.40;;;;;;5101818;28;20197;-45
2023/03/25 13:49:09;;;;;;;2.47;1.40;;;17.80;58.50;;;;;;5091692;28;20189;-46